aviador You're here:

LEPA Decoded Metar

PALMA DE MALLORCA in SPAIN
Report Time2018-06-24 09:00:00
UTC Time2018-06-24 09:15:25
Flight Rules vfr VFR
Wind070° at 05 kt
W.Decomp.*RWY 06: 4.9 kt HW 0.8 kt RCW
W.Rank070° ranks 5
Current wind is below 070° avg. (6.0)
Visibility9999 m
Phenomena:N/A
Clouds:Few 020 Hf
Expected CloudBase > 4,000 ft AGL from Temp-Dew spread
CeilingNone
Temp28°C (ISA +13)
Dew Point18°C (55% RH)
Heat Index28.9°C
QNH1017 hPa
Density Alt1,667 ft
Elevation26 ft
Report Wrong Elevation
Raw Report
LEPA 240900Z 07005KT 020V120 9999 FEW020 28/18 Q1017 NOSIG=

Extra information for LEPA:More info

Metar Taf Metar & Taf Last 4 Metars F.Rules Stats Wind Profile Meteogram Temp Stats Airport Information Weather charts Add Link Nearby VenuesMetar ALERT Operation Metar Decoded Social comments

Webcam La Seu Palma